Time;durP1;ratioP1;P1;durP2;ratioP2;P2;SDS_P1;SDS_P2;PMS_P1;PMS_P2;Temp;Humidity;BMP_temperature;BMP_pressure;BME280_temperature;BME280_humidity;BME280_pressure;Samples;Min_cycle;Max_cycle;Signal;HPM_P1;HPM_P2
2021/12/24 00:00:13;;;;;;;98.07;38.17;;;7.80;99.90;;;;;;5036068;28;20469;-94
2021/12/24 00:02:39;;;;;;;88.90;38.00;;;7.80;99.90;;;;;;5003711;28;20160;-93
2021/12/24 00:05:06;;;;;;;77.78;36.08;;;7.90;99.90;;;;;;5036329;28;20045;-94
2021/12/24 00:07:32;;;;;;;76.20;34.35;;;7.90;99.90;;;;;;5037459;28;20025;-93
2021/12/24 00:09:58;;;;;;;70.78;32.47;;;7.90;99.90;;;;;;5036144;28;20456;-92
2021/12/24 00:12:26;;;;;;;93.72;38.60;;;8.00;99.90;;;;;;5036776;28;20049;-93
2021/12/24 00:14:56;;;;;;;94.65;37.83;;;8.00;99.90;;;;;;5036330;28;20030;-92
2021/12/24 00:17:30;;;;;;;116.97;41.35;;;8.10;99.90;;;;;;4988705;28;20030;-93
2021/12/24 00:20:33;;;;;;;60.28;31.73;;;8.10;99.90;;;;;;4988408;28;20021;-92
2021/12/24 00:36:45;;;;;;;75.57;33.72;;;8.20;99.90;;;;;;5035485;28;20041;-92
2021/12/24 00:39:10;;;;;;;93.07;36.72;;;8.20;99.90;;;;;;5035935;28;20033;-93
2021/12/24 00:41:36;;;;;;;131.70;43.88;;;8.30;99.90;;;;;;5035978;28;20048;-93
2021/12/24 00:44:05;;;;;;;123.53;42.55;;;8.30;99.90;;;;;;5018987;28;20026;-93
2021/12/24 00:46:31;;;;;;;124.95;43.00;;;8.30;99.90;;;;;;5019713;28;20072;-93
2021/12/24 00:49:00;;;;;;;91.50;38.92;;;8.30;99.90;;;;;;5035179;28;20025;-94
2021/12/24 00:51:42;;;;;;;122.18;42.78;;;8.40;99.90;;;;;;5018993;28;20098;-93
2021/12/24 00:56:52;;;;;;;64.18;31.83;;;8.40;99.90;;;;;;5037677;28;20060;-91
2021/12/24 00:59:18;;;;;;;94.60;38.00;;;8.40;99.90;;;;;;5018702;28;20029;-93
2021/12/24 01:01:46;;;;;;;107.88;38.85;;;8.50;99.90;;;;;;5018933;28;20079;-93
2021/12/24 01:04:14;;;;;;;81.35;35.25;;;8.50;99.90;;;;;;5003745;28;20064;-93
2021/12/24 01:06:40;;;;;;;91.43;35.95;;;8.60;99.90;;;;;;5003067;28;20533;-94
2021/12/24 01:09:06;;;;;;;75.07;33.40;;;8.60;99.90;;;;;;5035029;28;20025;-93
2021/12/24 01:11:34;;;;;;;99.95;38.70;;;8.60;99.90;;;;;;5034934;28;20064;-93
2021/12/24 01:14:00;;;;;;;125.00;41.13;;;8.60;99.90;;;;;;5014948;28;20049;-94
2021/12/24 01:16:38;;;;;;;84.47;34.33;;;8.70;99.90;;;;;;5046963;28;20164;-93
2021/12/24 01:24:20;;;;;;;110.47;36.95;;;8.70;99.90;;;;;;5036728;28;20025;-93
2021/12/24 01:40:24;;;;;;;74.88;29.85;;;8.90;99.90;;;;;;5035372;28;20037;-93
2021/12/24 01:42:51;;;;;;;55.90;26.30;;;8.90;99.90;;;;;;5011056;28;20025;-91
2021/12/24 01:45:27;;;;;;;59.03;27.30;;;8.90;99.90;;;;;;5017085;28;20036;-93
2021/12/24 01:47:56;;;;;;;75.53;28.50;;;9.00;99.90;;;;;;5011383;28;20131;-94
2021/12/24 01:50:23;;;;;;;70.82;29.27;;;9.00;99.90;;;;;;5016657;28;20036;-93
2021/12/24 01:52:51;;;;;;;54.42;25.27;;;9.10;99.90;;;;;;5017221;28;20026;-93
2021/12/24 01:55:17;;;;;;;57.75;25.25;;;9.10;99.90;;;;;;5016998;28;20033;-94
2021/12/24 01:57:44;;;;;;;61.42;25.63;;;9.10;99.90;;;;;;5016988;28;20025;-94
2021/12/24 02:00:18;;;;;;;70.70;27.88;;;9.10;99.90;;;;;;5017499;28;20088;-93
2021/12/24 02:02:43;;;;;;;56.75;25.50;;;9.20;99.90;;;;;;5018873;28;20021;-92
2021/12/24 02:05:09;;;;;;;64.15;26.15;;;9.20;99.90;;;;;;5039014;28;20041;-94
2021/12/24 02:07:36;;;;;;;57.22;24.27;;;9.20;99.90;;;;;;5027176;28;20033;-94
2021/12/24 02:10:03;;;;;;;65.45;27.55;;;9.20;99.90;;;;;;5039010;28;20021;-94
2021/12/24 02:12:31;;;;;;;61.17;27.15;;;9.20;99.90;;;;;;5035197;28;20028;-93
2021/12/24 02:14:59;;;;;;;60.70;26.65;;;9.30;99.90;;;;;;5022223;28;20036;-93
2021/12/24 02:18:44;;;;;;;67.90;28.70;;;9.30;99.90;;;;;;5015060;28;20076;-93
2021/12/24 02:28:38;;;;;;;73.93;31.27;;;9.30;99.90;;;;;;5034536;28;20044;-94
2021/12/24 02:31:16;;;;;;;77.75;31.55;;;9.40;99.90;;;;;;5016642;28;20068;-93
2021/12/24 02:33:42;;;;;;;94.53;34.60;;;9.40;99.90;;;;;;5016970;28;20029;-93
2021/12/24 02:36:11;;;;;;;59.72;28.92;;;9.40;99.90;;;;;;5013359;28;20115;-93
2021/12/24 02:38:38;;;;;;;78.07;32.28;;;9.40;99.90;;;;;;5017711;28;20108;-92
2021/12/24 02:41:05;;;;;;;105.28;37.15;;;9.40;99.90;;;;;;5017511;28;20068;-93
2021/12/24 02:43:32;;;;;;;69.38;31.40;;;9.40;99.90;;;;;;5017106;28;20069;-93
2021/12/24 02:45:59;;;;;;;94.20;34.35;;;9.50;99.90;;;;;;5014481;28;20105;-94
2021/12/24 02:48:56;;;;;;;100.72;35.63;;;9.50;99.90;;;;;;5041482;28;20026;-93
2021/12/24 02:53:59;;;;;;;93.35;34.22;;;9.50;99.90;;;;;;5017745;28;20048;-93
2021/12/24 02:56:31;;;;;;;100.93;35.72;;;9.50;99.90;;;;;;5031258;28;20025;-93
2021/12/24 02:59:04;;;;;;;89.93;34.28;;;9.50;99.90;;;;;;5054625;28;20037;-92
2021/12/24 03:01:34;;;;;;;107.97;36.70;;;9.50;99.90;;;;;;5040938;28;20137;-92
2021/12/24 03:04:00;;;;;;;106.18;37.22;;;9.50;99.90;;;;;;5040737;28;20093;-93
2021/12/24 03:06:36;;;;;;;95.40;35.70;;;9.50;99.90;;;;;;5040652;28;20105;-94
2021/12/24 03:09:06;;;;;;;94.50;37.03;;;9.50;99.90;;;;;;5057275;28;20036;-93
2021/12/24 03:11:32;;;;;;;137.48;40.95;;;9.60;99.90;;;;;;5043975;28;20104;-93
2021/12/24 03:14:00;;;;;;;91.53;36.28;;;9.60;99.90;;;;;;5018782;28;20056;-94
2021/12/24 03:16:26;;;;;;;109.53;39.00;;;9.60;99.90;;;;;;5020516;28;20029;-93
2021/12/24 03:18:52;;;;;;;129.82;42.72;;;9.60;99.90;;;;;;5037041;28;20057;-93
2021/12/24 03:21:27;;;;;;;155.63;46.00;;;9.60;99.90;;;;;;5037580;28;20036;-94
2021/12/24 03:26:36;;;;;;;99.90;37.90;;;9.70;99.90;;;;;;5037367;28;20080;-94
2021/12/24 03:29:06;;;;;;;168.40;46.35;;;9.70;99.90;;;;;;5020108;28;20036;-93
2021/12/24 03:31:33;;;;;;;96.68;38.45;;;9.70;99.90;;;;;;5019407;28;20025;-94
2021/12/24 03:34:00;;;;;;;114.90;40.78;;;9.70;99.90;;;;;;5036489;28;20461;-93
2021/12/24 03:36:26;;;;;;;89.47;37.42;;;9.70;99.90;;;;;;5019568;28;20029;-93
2021/12/24 03:38:53;;;;;;;134.52;41.70;;;9.70;99.90;;;;;;5036064;28;20022;-94
2021/12/24 03:41:19;;;;;;;100.15;36.03;;;9.70;99.90;;;;;;5019398;28;20036;-93
2021/12/24 03:43:45;;;;;;;126.38;41.35;;;9.80;99.90;;;;;;5019330;28;20061;-92
2021/12/24 03:46:17;;;;;;;90.00;37.67;;;9.80;99.90;;;;;;5019471;28;20027;-94
2021/12/24 03:48:50;;;;;;;95.95;36.08;;;9.80;99.90;;;;;;5019372;28;20116;-92
2021/12/24 03:56:39;;;;;;;63.53;28.40;;;9.80;99.90;;;;;;5036923;28;20044;-92
2021/12/24 03:59:06;;;;;;;74.15;30.88;;;9.90;99.90;;;;;;5022976;28;20028;-92
2021/12/24 04:01:33;;;;;;;75.43;31.05;;;9.90;99.90;;;;;;5038880;28;20032;-92
2021/12/24 04:03:59;;;;;;;66.45;28.80;;;9.90;99.90;;;;;;5038879;28;20017;-91
2021/12/24 04:06:24;;;;;;;73.07;30.23;;;9.90;99.90;;;;;;5038597;28;20040;-93
2021/12/24 04:08:50;;;;;;;69.43;29.35;;;9.90;99.90;;;;;;5022151;28;20060;-92
2021/12/24 04:11:16;;;;;;;66.57;29.38;;;9.90;99.90;;;;;;5038685;28;20561;-92
2021/12/24 04:13:42;;;;;;;53.05;25.35;;;9.90;99.90;;;;;;5054818;28;20036;-93
2021/12/24 04:16:08;;;;;;;73.20;27.77;;;9.90;99.90;;;;;;5034936;28;20051;-93
2021/12/24 04:18:50;;;;;;;57.58;26.83;;;9.90;99.90;;;;;;5018717;28;20104;-92
2021/12/24 04:26:43;;;;;;;60.05;25.92;;;9.90;99.90;;;;;;5007643;28;20036;-92
2021/12/24 04:29:09;;;;;;;68.32;25.88;;;9.90;99.90;;;;;;5002535;28;20034;-91
2021/12/24 04:31:51;;;;;;;53.65;25.00;;;10.00;99.90;;;;;;5002509;28;20061;-93
2021/12/24 04:34:24;;;;;;;58.90;24.88;;;10.00;99.90;;;;;;5018589;28;20120;-94
2021/12/24 04:37:43;;;;;;;59.95;24.25;;;10.00;99.90;;;;;;5003476;28;20057;-92
2021/12/24 04:50:58;;;;;;;50.05;22.85;;;10.00;99.90;;;;;;5022825;28;20040;-92
2021/12/24 05:04:46;;;;;;;50.88;22.98;;;10.00;99.90;;;;;;5018120;28;20025;-93
2021/12/24 05:07:47;;;;;;;68.18;25.20;;;10.00;99.90;;;;;;5023067;28;20022;-93
2021/12/24 05:10:06;;;;;;;50.17;23.00;;;10.00;99.90;;;;;;5033416;28;20037;-93
2021/12/24 05:12:34;;;;;;;56.90;25.15;;;10.00;99.90;;;;;;5034547;28;20029;-93
2021/12/24 05:15:04;;;;;;;55.35;23.10;;;10.00;99.90;;;;;;5033773;28;20033;-92
2021/12/24 05:22:58;;;;;;;52.22;22.08;;;10.00;99.90;;;;;;5034660;28;20104;-94
2021/12/24 05:25:24;;;;;;;52.42;22.88;;;10.00;99.90;;;;;;5001292;28;20048;-92
2021/12/24 05:27:55;;;;;;;59.60;22.15;;;10.00;99.90;;;;;;5034061;28;20033;-92
2021/12/24 05:30:21;;;;;;;51.47;20.65;;;10.10;99.90;;;;;;5017401;28;20064;-93
2021/12/24 05:32:47;;;;;;;45.08;19.63;;;10.00;99.90;;;;;;5017260;28;20032;-93
2021/12/24 05:35:13;;;;;;;38.58;18.08;;;10.10;99.90;;;;;;5033744;28;20029;-92
2021/12/24 05:37:41;;;;;;;37.38;18.15;;;10.00;99.90;;;;;;5000480;28;20033;-93
2021/12/24 05:40:08;;;;;;;42.97;18.48;;;10.00;99.90;;;;;;5033689;28;20021;-93
2021/12/24 05:42:33;;;;;;;40.05;19.42;;;10.00;99.90;;;;;;5017048;28;20026;-93
2021/12/24 05:45:05;;;;;;;48.85;19.42;;;10.00;99.90;;;;;;5017389;28;20025;-92
2021/12/24 05:47:31;;;;;;;42.95;19.35;;;10.00;99.90;;;;;;5017281;28;20092;-92
2021/12/24 05:49:57;;;;;;;48.58;20.30;;;10.00;99.90;;;;;;5017219;28;20025;-91
2021/12/24 05:52:23;;;;;;;39.65;16.67;;;10.00;99.90;;;;;;5015327;28;20539;-93
2021/12/24 05:54:49;;;;;;;42.22;19.23;;;10.10;99.90;;;;;;5033099;28;20033;-92
2021/12/24 05:57:14;;;;;;;39.97;18.15;;;10.00;99.90;;;;;;5000743;28;20029;-91
2021/12/24 05:59:40;;;;;;;36.28;17.10;;;10.00;99.90;;;;;;5034770;28;20088;-92
2021/12/24 06:02:07;;;;;;;37.33;17.67;;;10.00;99.90;;;;;;4999692;28;20382;-91
2021/12/24 06:04:33;;;;;;;42.20;19.35;;;10.00;99.90;;;;;;5034212;28;20025;-91
2021/12/24 06:06:58;;;;;;;44.08;18.38;;;10.00;99.90;;;;;;5017225;28;20382;-91
2021/12/24 06:09:25;;;;;;;31.08;16.25;;;10.00;99.90;;;;;;5016620;28;20124;-91
2021/12/24 06:11:51;;;;;;;30.98;15.15;;;10.00;99.90;;;;;;5013741;28;20112;-93
2021/12/24 06:14:18;;;;;;;30.48;15.68;;;10.00;99.90;;;;;;5031482;28;20493;-92
2021/12/24 06:16:51;;;;;;;30.42;15.95;;;10.00;99.90;;;;;;5031291;28;20025;-91
2021/12/24 06:19:17;;;;;;;28.58;15.70;;;10.00;99.90;;;;;;5034453;28;20022;-91
2021/12/24 06:21:44;;;;;;;32.78;15.75;;;10.00;99.90;;;;;;5016934;28;20089;-91
2021/12/24 06:24:12;;;;;;;28.80;15.77;;;10.00;99.90;;;;;;5017014;28;20031;-93
2021/12/24 06:26:38;;;;;;;32.90;16.20;;;10.00;99.90;;;;;;5000223;28;20029;-92
2021/12/24 06:29:04;;;;;;;35.03;16.00;;;10.00;99.90;;;;;;5034061;28;20025;-91
2021/12/24 06:31:30;;;;;;;35.25;15.13;;;9.90;99.90;;;;;;5000472;28;20370;-93
2021/12/24 06:33:56;;;;;;;36.60;13.93;;;9.90;99.90;;;;;;5016584;28;20072;-92
2021/12/24 06:36:22;;;;;;;36.17;14.77;;;9.90;99.90;;;;;;5016808;28;20061;-92
2021/12/24 06:38:47;;;;;;;41.85;16.02;;;9.90;99.90;;;;;;5000496;28;20053;-92
2021/12/24 06:41:13;;;;;;;29.73;13.63;;;9.90;99.90;;;;;;5000353;28;20059;-88
2021/12/24 06:43:39;;;;;;;29.80;13.85;;;9.90;99.90;;;;;;5034611;28;20533;-91
2021/12/24 06:46:11;;;;;;;35.53;14.73;;;9.90;99.90;;;;;;4984438;28;20057;-91
2021/12/24 06:48:38;;;;;;;34.40;13.98;;;9.90;99.90;;;;;;5002188;28;20491;-90
2021/12/24 06:51:03;;;;;;;29.63;13.32;;;9.90;99.90;;;;;;5038403;28;20030;-92
2021/12/24 06:53:29;;;;;;;30.90;12.80;;;9.90;99.90;;;;;;5004396;28;20379;-92
2021/12/24 06:55:55;;;;;;;29.63;12.15;;;9.90;99.90;;;;;;5020889;28;20481;-91
2021/12/24 06:58:21;;;;;;;34.72;13.07;;;9.80;99.90;;;;;;5004729;28;20132;-92
2021/12/24 07:00:46;;;;;;;29.40;11.75;;;9.80;99.90;;;;;;5004293;28;20039;-93
2021/12/24 07:03:12;;;;;;;27.25;10.90;;;9.80;99.90;;;;;;5037122;28;20037;-91
2021/12/24 07:05:38;;;;;;;27.63;11.80;;;9.80;99.90;;;;;;5018892;28;20033;-91
2021/12/24 07:08:04;;;;;;;33.50;11.80;;;9.80;99.90;;;;;;5023905;28;20064;-90
2021/12/24 07:10:30;;;;;;;30.55;11.73;;;9.80;99.90;;;;;;5023587;28;20076;-90
2021/12/24 07:12:56;;;;;;;28.63;9.90;;;9.80;99.90;;;;;;5040072;28;20025;-90
2021/12/24 07:15:22;;;;;;;27.42;10.15;;;9.80;99.90;;;;;;5024201;28;20021;-91
2021/12/24 07:17:52;;;;;;;38.83;11.90;;;9.70;99.90;;;;;;5057822;28;20033;-91
2021/12/24 07:20:24;;;;;;;25.77;11.15;;;9.80;99.90;;;;;;5040384;28;20057;-92
2021/12/24 07:22:52;;;;;;;28.42;10.05;;;9.70;99.90;;;;;;5023839;28;20029;-92
2021/12/24 07:25:21;;;;;;;31.27;10.68;;;9.70;99.90;;;;;;5040318;28;20025;-91
2021/12/24 07:27:50;;;;;;;32.25;10.95;;;9.70;99.90;;;;;;5040616;28;20120;-92
2021/12/24 07:30:18;;;;;;;28.00;10.68;;;9.70;99.90;;;;;;5039344;28;20052;-92
2021/12/24 07:32:44;;;;;;;24.90;10.70;;;9.70;99.90;;;;;;5039519;28;20493;-93
2021/12/24 07:35:11;;;;;;;30.50;10.75;;;9.70;99.90;;;;;;5036828;28;20136;-91
2021/12/24 07:37:41;;;;;;;30.75;9.95;;;9.70;99.90;;;;;;5043227;28;20040;-91
2021/12/24 07:40:08;;;;;;;27.90;9.93;;;9.70;99.90;;;;;;5023240;28;20177;-92
2021/12/24 07:42:35;;;;;;;29.17;11.35;;;9.70;99.90;;;;;;5037689;28;20021;-91
2021/12/24 07:45:01;;;;;;;30.27;11.05;;;9.70;99.90;;;;;;5023365;28;20039;-91
2021/12/24 07:47:28;;;;;;;25.88;10.90;;;9.70;99.90;;;;;;5038658;28;20103;-92
2021/12/24 07:50:15;;;;;;;26.85;11.07;;;9.70;99.90;;;;;;5039317;28;20028;-89
2021/12/24 07:52:41;;;;;;;30.95;10.10;;;9.70;99.90;;;;;;5032131;28;20469;-89
2021/12/24 07:55:12;;;;;;;31.45;11.15;;;9.60;99.90;;;;;;5040052;28;20044;-90
2021/12/24 07:57:39;;;;;;;31.42;10.82;;;9.60;99.90;;;;;;5042352;28;20028;-90
2021/12/24 08:00:07;;;;;;;32.60;12.00;;;9.60;99.90;;;;;;5050029;28;20457;-90
2021/12/24 08:02:33;;;;;;;30.05;11.02;;;9.60;99.90;;;;;;5069432;28;20032;-89
2021/12/24 08:04:59;;;;;;;27.55;10.95;;;9.60;99.90;;;;;;5026400;28;20034;-90
2021/12/24 08:07:27;;;;;;;26.42;11.45;;;9.60;99.90;;;;;;5054075;28;20021;-90
2021/12/24 08:09:53;;;;;;;37.38;11.85;;;9.60;99.90;;;;;;5038656;28;20025;-90
2021/12/24 08:12:20;;;;;;;27.17;11.63;;;9.60;99.90;;;;;;5036132;28;20115;-91
2021/12/24 08:14:46;;;;;;;34.58;13.02;;;9.60;99.90;;;;;;5038601;28;20047;-90
2021/12/24 08:17:16;;;;;;;34.67;12.15;;;9.60;99.90;;;;;;5022582;28;20036;-91
2021/12/24 08:19:42;;;;;;;32.30;13.43;;;9.60;99.90;;;;;;5038253;28;20036;-90
2021/12/24 08:22:10;;;;;;;27.00;11.48;;;9.60;99.90;;;;;;5037875;28;20028;-90
2021/12/24 08:24:36;;;;;;;28.35;11.93;;;9.60;99.90;;;;;;5055399;28;20048;-91
2021/12/24 08:27:02;;;;;;;37.35;11.93;;;9.60;99.90;;;;;;5038408;28;20033;-90
2021/12/24 08:29:28;;;;;;;34.35;12.55;;;9.50;99.90;;;;;;5038413;28;20499;-90
2021/12/24 08:31:54;;;;;;;34.42;12.13;;;9.60;99.90;;;;;;5038460;28;20032;-91
2021/12/24 08:34:27;;;;;;;28.17;13.15;;;9.50;99.90;;;;;;5032973;28;20026;-91
2021/12/24 08:36:53;;;;;;;37.47;13.73;;;9.50;99.90;;;;;;5020608;28;20037;-91
2021/12/24 08:39:21;;;;;;;33.03;13.15;;;9.50;99.90;;;;;;5022157;28;20102;-92
2021/12/24 08:41:52;;;;;;;32.13;13.75;;;9.50;99.90;;;;;;5038168;28;20052;-92
2021/12/24 08:44:21;;;;;;;36.13;12.70;;;9.50;99.90;;;;;;5021591;28;20412;-92
2021/12/24 08:46:51;;;;;;;31.60;13.20;;;9.50;99.90;;;;;;5038097;28;20488;-92
2021/12/24 08:49:20;;;;;;;27.87;12.10;;;9.50;99.90;;;;;;5021396;28;20033;-92
2021/12/24 08:51:52;;;;;;;29.67;13.57;;;9.50;99.90;;;;;;5019047;28;20116;-90
2021/12/24 08:54:21;;;;;;;42.20;15.63;;;9.50;99.90;;;;;;5002563;28;20029;-90
2021/12/24 08:56:50;;;;;;;49.03;16.00;;;9.50;99.90;;;;;;5032466;28;20024;-90
2021/12/24 08:59:16;;;;;;;37.80;15.60;;;9.50;99.90;;;;;;5023379;28;20052;-91
2021/12/24 09:01:45;;;;;;;31.42;14.70;;;9.50;99.90;;;;;;5022850;28;20107;-91
2021/12/24 09:04:13;;;;;;;37.47;15.88;;;9.50;99.90;;;;;;5039246;28;20051;-90
2021/12/24 09:06:39;;;;;;;42.75;16.70;;;9.50;99.90;;;;;;5038209;28;20541;-91
2021/12/24 09:09:10;;;;;;;28.08;15.48;;;9.50;99.90;;;;;;5037437;28;20056;-90
2021/12/24 09:11:39;;;;;;;49.72;16.08;;;9.50;99.90;;;;;;5036557;28;20051;-91
2021/12/24 09:14:26;;;;;;;43.40;16.65;;;9.50;99.90;;;;;;5054840;28;20039;-91
2021/12/24 09:17:29;;;;;;;;;;;;;;;;;;;;;
2021/12/24 09:20:00;;;;;;;38.03;15.75;;;9.50;99.90;;;;;;5020866;28;20513;-93
2021/12/24 09:22:32;;;;;;;43.30;17.50;;;9.50;99.90;;;;;;5010573;28;20056;-92
2021/12/24 09:25:03;;;;;;;34.63;15.77;;;9.50;99.90;;;;;;5022360;28;20021;-91
2021/12/24 09:27:31;;;;;;;39.45;15.60;;;9.50;99.90;;;;;;5039837;28;20036;-94
2021/12/24 09:29:57;;;;;;;36.42;16.00;;;9.50;99.90;;;;;;5039884;28;20082;-92
2021/12/24 09:32:25;;;;;;;36.40;15.43;;;9.50;99.90;;;;;;5038619;28;20024;-91
2021/12/24 09:34:51;;;;;;;40.10;15.13;;;9.50;99.90;;;;;;5038759;28;20127;-91
2021/12/24 09:37:24;;;;;;;35.10;14.82;;;9.50;99.90;;;;;;5054797;28;20025;-90
2021/12/24 09:39:59;;;;;;;36.63;14.40;;;9.50;99.90;;;;;;5037130;28;20044;-90
2021/12/24 09:42:28;;;;;;;38.67;15.07;;;9.60;99.90;;;;;;5037741;28;20055;-89
2021/12/24 09:44:54;;;;;;;35.78;15.00;;;9.60;99.90;;;;;;5036416;28;20021;-90
2021/12/24 09:47:23;;;;;;;38.67;13.80;;;9.60;99.90;;;;;;5037062;28;20354;-87
2021/12/24 09:49:54;;;;;;;35.75;13.27;;;9.60;99.90;;;;;;5037195;28;20064;-90
2021/12/24 09:52:21;;;;;;;38.42;13.85;;;9.60;99.90;;;;;;5036337;28;20033;-89
2021/12/24 09:54:48;;;;;;;37.42;14.18;;;9.60;99.90;;;;;;5029476;28;20031;-90
2021/12/24 09:57:15;;;;;;;37.22;14.48;;;9.60;99.90;;;;;;5036974;28;20537;-90
2021/12/24 09:59:41;;;;;;;37.08;15.10;;;9.60;99.90;;;;;;5036799;28;20037;-91
2021/12/24 10:02:15;;;;;;;38.33;14.77;;;9.60;99.90;;;;;;5063358;28;20025;-90
2021/12/24 10:04:42;;;;;;;37.00;15.05;;;9.70;99.90;;;;;;5051852;28;20052;-89
2021/12/24 10:07:17;;;;;;;34.20;14.50;;;9.70;99.90;;;;;;5033362;28;20041;-90
2021/12/24 10:09:46;;;;;;;36.83;15.60;;;9.70;99.90;;;;;;5054048;28;20017;-89
2021/12/24 10:12:17;;;;;;;43.00;15.48;;;9.70;99.90;;;;;;5033667;28;20049;-90
2021/12/24 10:15:04;;;;;;;40.63;15.38;;;9.70;99.90;;;;;;5053802;28;20049;-89
2021/12/24 10:17:32;;;;;;;31.67;14.13;;;9.70;99.90;;;;;;5051769;28;20147;-89
2021/12/24 10:20:09;;;;;;;34.80;13.82;;;9.70;99.90;;;;;;5036190;28;20074;-88
2021/12/24 10:22:52;;;;;;;36.38;13.88;;;9.70;99.90;;;;;;5052505;28;20024;-89
2021/12/24 10:25:27;;;;;;;40.92;13.48;;;9.70;99.90;;;;;;5015313;28;20026;-89
2021/12/24 10:27:53;;;;;;;38.85;12.93;;;9.70;99.90;;;;;;5052572;28;20020;-90
2021/12/24 10:30:27;;;;;;;30.33;12.60;;;9.70;99.90;;;;;;5036222;28;20029;-88
2021/12/24 10:32:55;;;;;;;37.08;13.50;;;9.70;99.90;;;;;;5036266;28;20112;-89
2021/12/24 10:35:29;;;;;;;35.33;14.05;;;9.70;99.90;;;;;;5019826;28;20083;-91
2021/12/24 10:38:14;;;;;;;33.25;13.77;;;9.70;99.90;;;;;;5036257;28;20116;-89
2021/12/24 10:40:53;;;;;;;34.67;14.25;;;9.80;99.90;;;;;;5035948;28;20156;-89
2021/12/24 10:43:30;;;;;;;29.75;11.75;;;9.80;99.90;;;;;;5036119;28;20028;-89
2021/12/24 10:46:13;;;;;;;35.53;13.23;;;9.70;99.90;;;;;;5054557;28;20544;-90
2021/12/24 10:48:58;;;;;;;36.90;14.82;;;9.70;99.90;;;;;;5055450;28;20033;-88
2021/12/24 10:51:52;;;;;;;33.88;12.75;;;9.80;99.90;;;;;;5036949;28;20033;-90
2021/12/24 10:54:12;;;;;;;32.95;13.30;;;9.80;99.90;;;;;;5054465;28;20061;-89
2021/12/24 10:56:38;;;;;;;40.25;13.73;;;9.80;99.90;;;;;;5043113;28;20039;-89
2021/12/24 10:59:05;;;;;;;26.23;10.85;;;9.80;99.90;;;;;;5037144;28;20052;-90
2021/12/24 11:01:31;;;;;;;37.05;13.73;;;9.80;99.90;;;;;;5048583;28;20033;-90
2021/12/24 11:03:57;;;;;;;35.40;12.70;;;9.80;99.90;;;;;;5054292;28;20026;-91
2021/12/24 11:06:29;;;;;;;35.67;13.10;;;9.70;99.90;;;;;;5037040;28;20322;-89
2021/12/24 11:08:56;;;;;;;37.28;13.23;;;9.70;99.90;;;;;;5021713;28;20025;-89
2021/12/24 11:11:22;;;;;;;31.63;12.35;;;9.80;99.90;;;;;;5038954;28;20040;-90
2021/12/24 11:13:48;;;;;;;34.22;13.10;;;9.80;99.90;;;;;;5020978;28;20053;-90
2021/12/24 11:16:22;;;;;;;30.52;11.63;;;9.80;99.90;;;;;;5021361;28;20021;-90
2021/12/24 11:19:13;;;;;;;31.33;12.48;;;9.80;99.90;;;;;;5054994;28;20040;-92
2021/12/24 11:21:39;;;;;;;27.73;11.10;;;9.80;99.90;;;;;;5021803;28;20048;-91
2021/12/24 11:24:05;;;;;;;36.13;11.90;;;9.80;99.90;;;;;;5041599;28;20005;-91
2021/12/24 11:26:39;;;;;;;29.85;11.85;;;9.80;99.90;;;;;;5057312;28;20037;-91
2021/12/24 11:29:05;;;;;;;23.17;10.02;;;9.80;99.90;;;;;;5053713;28;20010;-90
2021/12/24 11:31:32;;;;;;;33.55;11.13;;;9.80;99.90;;;;;;5022829;28;20049;-89
2021/12/24 11:34:13;;;;;;;33.72;10.77;;;9.80;99.90;;;;;;5053629;28;20014;-94
2021/12/24 11:36:39;;;;;;;;;;;9.80;99.90;;;;;;5039737;28;20017;-91
2021/12/24 11:39:15;;;;;;;28.23;9.13;;;9.80;99.90;;;;;;5036663;28;19933;-91
2021/12/24 11:41:42;;;;;;;27.05;8.40;;;9.80;99.90;;;;;;5021288;28;20462;-91
2021/12/24 11:44:08;;;;;;;26.33;8.35;;;9.80;99.90;;;;;;5022715;28;20124;-90
2021/12/24 11:46:37;;;;;;;30.25;8.65;;;9.80;99.90;;;;;;5003289;28;20034;-90
2021/12/24 11:49:03;;;;;;;24.55;8.25;;;9.90;99.90;;;;;;5036041;28;20044;-90
2021/12/24 11:51:30;;;;;;;24.67;8.40;;;9.90;99.90;;;;;;5033160;28;20060;-90
2021/12/24 11:54:03;;;;;;;29.83;8.93;;;9.90;99.90;;;;;;5053806;28;20060;-87
2021/12/24 11:56:49;;;;;;;27.38;8.60;;;9.90;99.90;;;;;;5032745;28;20021;-90
2021/12/24 11:59:15;;;;;;;26.63;8.02;;;9.90;99.90;;;;;;5034134;28;20025;-89
2021/12/24 12:01:43;;;;;;;28.27;8.05;;;9.90;99.90;;;;;;5034542;28;20031;-90
2021/12/24 12:04:20;;;;;;;28.77;8.50;;;9.90;99.90;;;;;;5038900;28;20013;-89
2021/12/24 12:06:46;;;;;;;24.05;7.90;;;9.90;99.90;;;;;;5054311;28;20032;-90
2021/12/24 12:09:14;;;;;;;25.17;8.98;;;9.90;99.90;;;;;;5032138;28;20025;-90
2021/12/24 12:11:43;;;;;;;25.48;8.50;;;10.00;99.90;;;;;;5036895;28;20369;-89
2021/12/24 12:14:14;;;;;;;22.50;8.57;;;9.90;99.90;;;;;;5055202;28;20029;-90
2021/12/24 12:16:39;;;;;;;34.20;8.95;;;10.00;99.90;;;;;;5038026;28;20057;-90
2021/12/24 12:20:01;;;;;;;26.38;8.20;;;9.90;99.90;;;;;;5056080;28;20095;-89
2021/12/24 12:25:09;;;;;;;32.20;9.32;;;9.90;99.90;;;;;;5057029;28;20078;-89
2021/12/24 12:27:45;;;;;;;28.45;8.98;;;9.90;99.90;;;;;;5037158;28;20509;-90
2021/12/24 12:30:17;;;;;;;32.13;9.60;;;9.90;99.90;;;;;;5037845;28;20113;-90
2021/12/24 12:32:43;;;;;;;23.60;10.10;;;9.90;99.90;;;;;;5038034;28;20033;-88
2021/12/24 12:35:10;;;;;;;25.98;10.52;;;9.90;99.90;;;;;;5021857;28;20025;-90
2021/12/24 12:37:51;;;;;;;27.50;11.00;;;9.90;99.90;;;;;;5037306;28;20025;-90
2021/12/24 12:40:16;;;;;;;28.23;11.50;;;9.90;99.90;;;;;;5037440;28;20025;-90
2021/12/24 12:42:49;;;;;;;27.70;11.90;;;9.90;99.90;;;;;;5034495;28;20041;-89
2021/12/24 12:45:15;;;;;;;28.40;11.27;;;10.00;99.90;;;;;;5050109;28;20017;-90
2021/12/24 12:47:56;;;;;;;30.80;12.38;;;9.90;99.90;;;;;;5019248;28;20116;-93
2021/12/24 12:50:23;;;;;;;31.20;11.65;;;9.90;99.90;;;;;;5046621;28;20017;-90
2021/12/24 12:52:52;;;;;;;25.83;11.10;;;9.90;99.90;;;;;;5029635;28;20017;-89
2021/12/24 12:55:36;;;;;;;29.35;10.85;;;9.90;99.90;;;;;;5029078;28;20059;-90
2021/12/24 12:58:21;;;;;;;27.08;10.07;;;9.90;99.90;;;;;;5029102;28;20014;-90
2021/12/24 13:01:09;;;;;;;20.27;9.82;;;9.90;99.90;;;;;;5047839;28;20029;-91
2021/12/24 13:03:57;;;;;;;26.45;9.90;;;9.90;99.90;;;;;;5010453;28;20135;-92
2021/12/24 13:06:38;;;;;;;28.65;10.90;;;9.90;99.90;;;;;;5035967;28;20112;-91
2021/12/24 13:09:09;;;;;;;33.45;11.45;;;9.90;99.90;;;;;;5028362;28;20021;-92
2021/12/24 13:11:46;;;;;;;29.02;11.10;;;9.90;99.90;;;;;;4984887;28;1155135;-92
2021/12/24 13:14:14;;;;;;;31.33;11.02;;;9.90;99.90;;;;;;5036329;28;20362;-92
2021/12/24 13:16:53;;;;;;;36.45;10.98;;;9.90;99.90;;;;;;5034894;28;20032;-90
2021/12/24 13:24:40;;;;;;;27.23;11.15;;;9.90;99.90;;;;;;5054660;28;20499;-92
2021/12/24 13:27:07;;;;;;;30.17;11.90;;;9.90;99.90;;;;;;5037234;28;20370;-91
2021/12/24 13:29:32;;;;;;;23.58;11.70;;;9.90;99.90;;;;;;5035965;28;20029;-92
2021/12/24 13:32:01;;;;;;;33.83;11.90;;;9.90;99.90;;;;;;5015446;28;20440;-92
2021/12/24 13:34:29;;;;;;;25.00;12.52;;;10.00;99.90;;;;;;5034381;28;20112;-91
2021/12/24 13:37:01;;;;;;;24.67;11.35;;;10.00;99.90;;;;;;5034640;28;20045;-92
2021/12/24 13:39:26;;;;;;;24.17;11.20;;;9.90;99.90;;;;;;5019997;28;20025;-93
2021/12/24 13:42:07;;;;;;;35.92;12.45;;;10.00;99.90;;;;;;5020981;28;20091;-92
2021/12/24 13:44:34;;;;;;;28.20;12.50;;;9.90;99.90;;;;;;5054420;28;20017;-91
2021/12/24 13:47:16;;;;;;;28.40;12.73;;;9.90;99.90;;;;;;5036866;28;20568;-91
2021/12/24 13:55:46;;;;;;;33.83;12.93;;;9.90;99.90;;;;;;4997338;28;20106;-93
2021/12/24 13:58:15;;;;;;;25.60;12.35;;;9.90;99.90;;;;;;5029755;28;20046;-92
2021/12/24 14:00:51;;;;;;;29.63;12.75;;;9.90;99.90;;;;;;5040781;28;20119;-91
2021/12/24 14:03:21;;;;;;;36.55;13.23;;;9.90;99.90;;;;;;5036338;28;20556;-91
2021/12/24 14:05:49;;;;;;;26.63;13.07;;;9.90;99.90;;;;;;5036255;28;20140;-91
2021/12/24 14:08:21;;;;;;;29.88;12.40;;;9.90;99.90;;;;;;5038006;28;20021;-91
2021/12/24 14:10:49;;;;;;;25.27;12.02;;;10.00;99.90;;;;;;5037735;28;20025;-92
2021/12/24 14:13:28;;;;;;;31.33;12.30;;;9.90;99.90;;;;;;5037785;28;20397;-92
2021/12/24 14:16:12;;;;;;;27.17;12.45;;;9.90;99.90;;;;;;5038400;28;20032;-92
2021/12/24 14:24:15;;;;;;;25.75;11.20;;;9.90;99.90;;;;;;5055330;28;20025;-92
2021/12/24 14:26:45;;;;;;;27.80;13.55;;;9.90;99.90;;;;;;5054570;28;20087;-91
2021/12/24 14:29:13;;;;;;;33.63;15.52;;;9.90;99.90;;;;;;5037384;28;20035;-92
2021/12/24 14:31:50;;;;;;;38.75;16.83;;;9.90;99.90;;;;;;5037694;28;20033;-93
2021/12/24 14:34:29;;;;;;;33.90;13.98;;;9.90;99.90;;;;;;5054871;28;20083;-91
2021/12/24 14:37:00;;;;;;;26.08;13.00;;;9.90;99.90;;;;;;5036327;28;20048;-92
2021/12/24 14:39:44;;;;;;;30.88;14.10;;;9.90;99.90;;;;;;5037358;28;20060;-92